createdAt,value
2023-02-16T00:01:54.772Z,101900.06
2023-02-16T00:04:22.535Z,101903.50
2023-02-16T00:06:49.617Z,101902.72
2023-02-16T00:09:16.734Z,101899.97
2023-02-16T00:12:02.546Z,101894.09
2023-02-16T00:14:29.046Z,101885.06
2023-02-16T00:16:57.250Z,101874.78
2023-02-16T00:19:28.010Z,101875.41
2023-02-16T00:21:56.750Z,101878.72
2023-02-16T00:24:24.682Z,101872.19
2023-02-16T00:26:51.225Z,101874.59
2023-02-16T00:29:21.190Z,101881.50
2023-02-16T00:31:48.006Z,101875.75
2023-02-16T00:34:26.850Z,101873.34
2023-02-16T00:36:53.485Z,101879.81
2023-02-16T00:39:19.936Z,101870.69
2023-02-16T00:41:52.367Z,101875.38
2023-02-16T00:44:29.993Z,101861.56
2023-02-16T00:46:56.843Z,101867.03
2023-02-16T00:49:23.347Z,101863.31
2023-02-16T00:51:50.426Z,101872.53
2023-02-16T00:54:16.909Z,101866.19
2023-02-16T00:56:43.579Z,101867.78
2023-02-16T00:59:16.230Z,101865.97
2023-02-16T01:01:42.957Z,101860.34
2023-02-16T01:04:13.853Z,101865.91
2023-02-16T01:06:58.966Z,101867.63
2023-02-16T01:09:44.018Z,101860.34
2023-02-16T01:12:15.317Z,101853.72
2023-02-16T01:14:52.397Z,101855.00
2023-02-16T01:17:18.937Z,101844.03
2023-02-16T01:19:45.401Z,101841.75
2023-02-16T01:22:11.875Z,101837.06
2023-02-16T01:24:38.463Z,101852.22
2023-02-16T01:27:04.916Z,101836.88
2023-02-16T01:29:31.365Z,101836.66
2023-02-16T01:31:57.970Z,101850.72
2023-02-16T01:34:25.482Z,101843.03
2023-02-16T01:36:52.084Z,101856.97
2023-02-16T01:39:20.680Z,101849.09
2023-02-16T01:41:56.550Z,101842.00
2023-02-16T01:44:47.007Z,101839.63
2023-02-16T01:47:52.050Z,101839.75
2023-02-16T01:50:27.274Z,101834.78
2023-02-16T01:53:19.894Z,101845.00
2023-02-16T01:55:48.205Z,101843.97
2023-02-16T01:58:38.662Z,101838.69
2023-02-16T02:01:05.352Z,101835.53
2023-02-16T02:03:53.174Z,101835.78
2023-02-16T02:06:31.149Z,101848.00
2023-02-16T02:09:03.920Z,101841.31
2023-02-16T02:11:34.616Z,101842.41
2023-02-16T02:14:20.094Z,101843.16
2023-02-16T02:16:59.650Z,101836.69
2023-02-16T02:19:26.263Z,101837.09
2023-02-16T02:22:49.930Z,101837.22
2023-02-16T02:25:47.964Z,101839.06
2023-02-16T02:28:25.543Z,101834.00
2023-02-16T02:31:23.083Z,101836.59
2023-02-16T02:34:01.901Z,101837.44
2023-02-16T02:36:40.633Z,101830.28
2023-02-16T02:39:33.883Z,101825.44
2023-02-16T02:42:06.275Z,101830.94
2023-02-16T02:44:40.922Z,101831.81
2023-02-16T02:47:07.788Z,101832.69
2023-02-16T02:49:34.265Z,101835.47
2023-02-16T02:52:00.945Z,101827.22
2023-02-16T02:54:52.621Z,101832.41
2023-02-16T02:57:43.212Z,101835.53
2023-02-16T03:00:28.489Z,101834.59
2023-02-16T03:03:01.664Z,101832.88
2023-02-16T03:05:29.594Z,101830.25
2023-02-16T03:08:14.004Z,101819.72
2023-02-16T03:11:09.237Z,101817.97
2023-02-16T03:14:06.025Z,101805.28
2023-02-16T03:16:38.483Z,101806.56
2023-02-16T03:19:25.575Z,101800.03
2023-02-16T03:22:10.773Z,101799.75
2023-02-16T03:24:55.842Z,101795.78
2023-02-16T03:27:44.332Z,101786.13
2023-02-16T03:30:11.954Z,101776.47
2023-02-16T03:32:39.536Z,101781.63
2023-02-16T03:35:06.540Z,101777.13
2023-02-16T03:37:33.437Z,101773.78
2023-02-16T03:40:18.678Z,101783.38
2023-02-16T03:42:50.125Z,101791.91
2023-02-16T03:45:17.473Z,101784.78
2023-02-16T03:47:43.932Z,101786.13
2023-02-16T03:50:10.491Z,101778.72
2023-02-16T03:52:36.924Z,101776.63
2023-02-16T03:55:03.520Z,101783.50
2023-02-16T03:57:29.956Z,101775.78
2023-02-16T03:59:59.183Z,101772.63
2023-02-16T04:02:27.705Z,101776.28
2023-02-16T04:04:54.302Z,101767.16
2023-02-16T04:07:20.835Z,101766.69
2023-02-16T04:09:47.362Z,101766.81
2023-02-16T04:12:32.307Z,101772.44
2023-02-16T04:14:58.821Z,101770.06
2023-02-16T04:17:25.271Z,101774.06
2023-02-16T04:19:51.728Z,101761.06
2023-02-16T04:22:18.215Z,101754.25
2023-02-16T04:24:44.688Z,101755.69
2023-02-16T04:27:11.214Z,101759.81
2023-02-16T04:29:37.637Z,101754.81
2023-02-16T04:32:04.886Z,101764.22
2023-02-16T04:34:31.421Z,101753.69
2023-02-16T04:36:57.874Z,101759.81
2023-02-16T04:39:24.336Z,101746.91
2023-02-16T04:41:50.808Z,101749.56
2023-02-16T04:44:17.336Z,101754.38
2023-02-16T04:46:43.861Z,101759.16
2023-02-16T04:49:10.301Z,101756.44
2023-02-16T04:51:36.761Z,101751.56
2023-02-16T04:54:03.237Z,101742.75
2023-02-16T04:56:29.777Z,101747.94
2023-02-16T04:58:56.578Z,101755.66
2023-02-16T05:01:24.851Z,101752.69
2023-02-16T05:03:51.415Z,101745.91
2023-02-16T05:06:18.446Z,101749.16
2023-02-16T05:08:45.371Z,101755.19
2023-02-16T05:11:30.523Z,101757.25
2023-02-16T05:14:16.758Z,101753.56
2023-02-16T05:16:43.567Z,101753.56
2023-02-16T05:19:10.029Z,101766.16
2023-02-16T05:21:36.584Z,101756.06
2023-02-16T05:24:09.289Z,101776.84
2023-02-16T05:26:37.035Z,101768.63
2023-02-16T05:29:04.083Z,101764.72
2023-02-16T05:31:38.007Z,101768.13
2023-02-16T05:34:04.658Z,101759.78
2023-02-16T05:36:31.282Z,101755.66
2023-02-16T05:38:57.752Z,101756.94
2023-02-16T05:41:24.319Z,101753.28
2023-02-16T05:43:52.304Z,101758.16
2023-02-16T05:46:19.830Z,101754.53
2023-02-16T05:48:46.435Z,101762.88
2023-02-16T05:51:13.496Z,101757.91
2023-02-16T05:53:40.218Z,101757.31
2023-02-16T05:56:07.543Z,101751.06
2023-02-16T05:58:34.101Z,101756.66
2023-02-16T06:01:01.028Z,101751.66
2023-02-16T06:03:27.893Z,101744.31
2023-02-16T06:06:00.617Z,101741.81
2023-02-16T06:08:27.824Z,101747.94
2023-02-16T06:10:54.689Z,101749.22
2023-02-16T06:13:22.007Z,101746.66
2023-02-16T06:15:52.280Z,101746.09
2023-02-16T06:18:18.878Z,101750.69
2023-02-16T06:20:45.694Z,101746.31
2023-02-16T06:23:13.349Z,101744.69
2023-02-16T06:25:44.387Z,101748.75
2023-02-16T06:28:11.350Z,101749.50
2023-02-16T06:30:38.011Z,101753.66
2023-02-16T06:33:04.602Z,101749.22
2023-02-16T06:35:31.404Z,101757.56
2023-02-16T06:37:59.242Z,101755.63
2023-02-16T06:40:26.064Z,101757.47
2023-02-16T06:42:52.565Z,101761.47
2023-02-16T06:45:19.382Z,101755.03
2023-02-16T06:47:45.921Z,101753.22
2023-02-16T06:50:14.493Z,101747.34
2023-02-16T06:52:41.137Z,101752.00
2023-02-16T06:55:08.208Z,101750.34
2023-02-16T06:57:34.660Z,101753.72
2023-02-16T07:00:01.114Z,101751.28
2023-02-16T07:02:27.545Z,101737.94
2023-02-16T07:04:54.621Z,101739.91
2023-02-16T07:07:21.176Z,101755.69
2023-02-16T07:09:47.801Z,101748.16
2023-02-16T07:12:14.337Z,101737.38
2023-02-16T07:14:42.508Z,101749.47
2023-02-16T07:17:10.312Z,101738.16
2023-02-16T07:19:36.772Z,101740.16
2023-02-16T07:22:05.183Z,101745.09
2023-02-16T07:24:31.657Z,101746.81
2023-02-16T07:26:58.097Z,101747.91
2023-02-16T07:29:24.557Z,101745.19
2023-02-16T07:31:51.539Z,101740.16
2023-02-16T07:34:20.181Z,101738.81
2023-02-16T07:36:47.338Z,101743.75
2023-02-16T07:39:13.790Z,101741.31
2023-02-16T07:41:40.245Z,101732.78
2023-02-16T07:44:06.729Z,101732.78
2023-02-16T07:46:33.522Z,101724.13
2023-02-16T07:49:00.357Z,101725.84
2023-02-16T07:51:28.975Z,101722.16
2023-02-16T07:53:55.467Z,101729.75
2023-02-16T07:56:27.071Z,101730.41
2023-02-16T07:58:55.326Z,101729.84
2023-02-16T08:01:22.451Z,101734.16
2023-02-16T08:03:49.365Z,101739.31
2023-02-16T08:06:16.300Z,101745.06
2023-02-16T08:08:42.853Z,101743.53
2023-02-16T08:11:19.305Z,101738.03
2023-02-16T08:13:46.125Z,101750.53
2023-02-16T08:16:18.841Z,101752.91
2023-02-16T08:18:45.534Z,101756.06
2023-02-16T08:21:18.104Z,101738.53
2023-02-16T08:23:56.348Z,101749.75
2023-02-16T08:26:24.417Z,101752.22
2023-02-16T08:28:51.720Z,101756.09
2023-02-16T08:31:23.347Z,101747.66
2023-02-16T08:33:50.995Z,101758.91
2023-02-16T08:36:19.578Z,101745.28
2023-02-16T08:38:50.121Z,101755.69
2023-02-16T08:41:18.079Z,101757.44
2023-02-16T08:43:44.592Z,101761.75
2023-02-16T08:46:11.359Z,101751.03
2023-02-16T08:48:39.884Z,101753.28
2023-02-16T08:51:07.122Z,101754.38
2023-02-16T08:53:35.061Z,101744.31
2023-02-16T08:56:03.948Z,101743.47
2023-02-16T08:58:31.403Z,101735.44
2023-02-16T09:00:58.036Z,101737.19
2023-02-16T09:03:25.028Z,101740.09
2023-02-16T09:05:55.400Z,101737.50
2023-02-16T09:08:21.897Z,101745.84
2023-02-16T09:10:48.401Z,101745.75
2023-02-16T09:13:15.088Z,101741.47
2023-02-16T09:15:43.134Z,101741.88
2023-02-16T09:18:14.129Z,101732.69
2023-02-16T09:20:44.301Z,101733.41
2023-02-16T09:23:12.817Z,101732.31
2023-02-16T09:25:40.147Z,101744.78
2023-02-16T09:28:06.898Z,101756.22
2023-02-16T09:30:34.734Z,101750.78
2023-02-16T09:33:01.437Z,101752.25
2023-02-16T09:35:27.964Z,101744.06
2023-02-16T09:37:54.415Z,101747.94
2023-02-16T09:40:21.359Z,101760.00
2023-02-16T09:42:58.439Z,101770.25
2023-02-16T09:45:26.950Z,101755.91
2023-02-16T09:47:55.189Z,101765.84
2023-02-16T09:50:52.224Z,101745.44
2023-02-16T09:53:40.356Z,101758.59
2023-02-16T09:56:25.198Z,101764.91
2023-02-16T09:58:57.718Z,101760.38
2023-02-16T10:01:34.969Z,101762.81
2023-02-16T10:04:20.222Z,101760.44
2023-02-16T10:06:58.451Z,101757.84
2023-02-16T10:09:27.831Z,101753.56
2023-02-16T10:12:12.966Z,101763.28
2023-02-16T10:14:56.638Z,101757.44
2023-02-16T10:17:37.866Z,101774.19
2023-02-16T10:20:16.935Z,101770.75
2023-02-16T10:22:53.285Z,101786.13
2023-02-16T10:25:37.333Z,101780.00
2023-02-16T10:28:22.659Z,101785.25
2023-02-16T10:30:55.070Z,101775.97
2023-02-16T10:33:33.887Z,101782.81
2023-02-16T10:36:04.296Z,101775.69
2023-02-16T10:38:40.499Z,101767.47
2023-02-16T10:41:28.916Z,101764.34
2023-02-16T10:44:01.610Z,101772.78
2023-02-16T10:46:38.313Z,101773.69
2023-02-16T10:49:04.952Z,101777.13
2023-02-16T10:51:34.096Z,101771.19
2023-02-16T10:54:21.971Z,101770.28
2023-02-16T10:56:59.528Z,101780.19
2023-02-16T10:59:44.705Z,101758.19
2023-02-16T11:02:21.822Z,101767.50
2023-02-16T11:04:52.479Z,101770.81
2023-02-16T11:07:22.161Z,101771.00
2023-02-16T11:09:53.853Z,101764.75
2023-02-16T11:12:35.102Z,101770.94
2023-02-16T11:15:13.979Z,101769.34
2023-02-16T11:17:53.138Z,101770.75
2023-02-16T11:20:51.728Z,101765.75
2023-02-16T11:23:27.734Z,101763.16
2023-02-16T11:26:13.104Z,101771.22
2023-02-16T11:28:42.870Z,101769.00
2023-02-16T11:31:21.660Z,101763.88
2023-02-16T11:34:05.856Z,101766.72
2023-02-16T11:36:38.330Z,101768.25
2023-02-16T11:39:14.200Z,101767.31
2023-02-16T11:41:56.204Z,101761.56
2023-02-16T11:44:32.295Z,101759.31
2023-02-16T11:47:01.546Z,101753.03
2023-02-16T11:49:42.115Z,101758.72
2023-02-16T11:52:37.163Z,101763.50
2023-02-16T11:55:04.861Z,101760.41
2023-02-16T11:57:35.912Z,101761.69
2023-02-16T12:00:14.667Z,101754.25
2023-02-16T12:03:09.981Z,101751.25
2023-02-16T12:05:43.738Z,101749.09
2023-02-16T12:08:25.455Z,101759.72
2023-02-16T12:11:06.881Z,101748.31
2023-02-16T12:13:43.544Z,101746.03
2023-02-16T12:16:48.824Z,101752.91
2023-02-16T12:19:44.843Z,101749.16
2023-02-16T12:22:14.298Z,101747.03
2023-02-16T12:24:57.065Z,101737.78
2023-02-16T12:27:40.625Z,101738.53
2023-02-16T12:30:28.356Z,101740.31
2023-02-16T12:33:13.549Z,101731.69
2023-02-16T12:35:51.427Z,101738.84
2023-02-16T12:38:55.609Z,101739.25
2023-02-16T12:41:53.009Z,101736.34
2023-02-16T12:44:29.810Z,101737.69
2023-02-16T12:47:08.408Z,101719.59
2023-02-16T12:49:43.986Z,101719.88
2023-02-16T12:52:18.890Z,101716.16
2023-02-16T12:54:49.664Z,101711.63
2023-02-16T12:57:20.635Z,101724.22
2023-02-16T12:59:55.460Z,101715.38
2023-02-16T13:02:43.121Z,101715.00
2023-02-16T13:05:21.313Z,101715.78
2023-02-16T13:07:52.501Z,101707.44
2023-02-16T13:10:39.266Z,101707.22
2023-02-16T13:13:12.457Z,101696.22
2023-02-16T13:16:17.440Z,101701.25
2023-02-16T13:18:56.308Z,101688.59
2023-02-16T13:21:51.579Z,101697.06
2023-02-16T13:24:40.281Z,101697.03
2023-02-16T13:27:22.152Z,101689.34
2023-02-16T13:29:54.689Z,101685.50
2023-02-16T13:32:46.657Z,101696.06
2023-02-16T13:35:25.813Z,101688.16
2023-02-16T13:38:10.999Z,101679.63
2023-02-16T13:40:51.369Z,101679.25
2023-02-16T13:43:26.763Z,101667.06
2023-02-16T13:45:54.602Z,101668.31
2023-02-16T13:48:29.255Z,101658.16
2023-02-16T13:51:05.262Z,101658.72
2023-02-16T13:53:40.101Z,101657.59
2023-02-16T13:56:29.931Z,101668.69
2023-02-16T13:59:19.658Z,101666.31
2023-02-16T14:01:47.571Z,101665.22
2023-02-16T14:04:23.198Z,101664.63
2023-02-16T14:07:13.419Z,101668.06
2023-02-16T14:09:39.919Z,101667.00
2023-02-16T14:12:09.520Z,101677.84
2023-02-16T14:14:42.054Z,101682.78
2023-02-16T14:17:14.867Z,101683.34
2023-02-16T14:20:00.693Z,101671.41
2023-02-16T14:22:45.682Z,101670.75
2023-02-16T14:25:24.476Z,101663.19
2023-02-16T14:27:51.596Z,101660.28
2023-02-16T14:30:27.915Z,101661.09
2023-02-16T14:33:27.730Z,101650.06
2023-02-16T14:36:00.471Z,101659.09
2023-02-16T14:38:40.211Z,101654.31
2023-02-16T14:41:13.879Z,101650.16
2023-02-16T14:43:45.769Z,101662.81
2023-02-16T14:46:18.271Z,101663.38
2023-02-16T14:49:22.486Z,101662.75
2023-02-16T14:51:57.944Z,101657.81
2023-02-16T14:54:43.245Z,101664.56
2023-02-16T14:57:24.368Z,101654.09
2023-02-16T15:00:02.165Z,101659.69
2023-02-16T15:02:30.204Z,101650.41
2023-02-16T15:04:57.295Z,101652.03
2023-02-16T15:07:25.648Z,101655.94
2023-02-16T15:09:57.371Z,101659.13
2023-02-16T15:12:29.992Z,101654.03
2023-02-16T15:15:07.557Z,101655.88
2023-02-16T15:17:38.082Z,101656.88
2023-02-16T15:20:21.723Z,101663.34
2023-02-16T15:22:57.017Z,101649.19
2023-02-16T15:25:27.771Z,101641.91
2023-02-16T15:28:14.855Z,101651.00
2023-02-16T15:30:53.179Z,101665.47
2023-02-16T15:33:23.873Z,101652.94
2023-02-16T15:35:57.216Z,101654.97
2023-02-16T15:38:34.752Z,101659.94
2023-02-16T15:41:04.489Z,101655.66
2023-02-16T15:43:43.805Z,101650.69
2023-02-16T15:46:23.907Z,101656.59
2023-02-16T15:48:50.945Z,101652.13
2023-02-16T15:51:33.386Z,101653.88
2023-02-16T15:54:01.191Z,101654.84
2023-02-16T15:56:45.534Z,101649.59
2023-02-16T15:59:35.346Z,101649.34
2023-02-16T16:02:21.870Z,101646.13
2023-02-16T16:05:01.094Z,101648.34
2023-02-16T16:07:32.128Z,101652.47
2023-02-16T16:10:00.120Z,101649.84
2023-02-16T16:12:27.126Z,101641.72
2023-02-16T16:14:56.391Z,101640.47
2023-02-16T16:17:29.776Z,101647.00
2023-02-16T16:19:58.165Z,101636.66
2023-02-16T16:22:39.724Z,101643.22
2023-02-16T16:25:30.402Z,101639.66
2023-02-16T16:27:57.253Z,101641.72
2023-02-16T16:30:23.728Z,101643.06
2023-02-16T16:33:07.711Z,101637.91
2023-02-16T16:35:46.441Z,101636.28
2023-02-16T16:38:28.234Z,101633.31
2023-02-16T16:40:57.859Z,101623.16
2023-02-16T16:43:32.925Z,101625.09
2023-02-16T16:46:19.266Z,101639.88
2023-02-16T16:48:47.659Z,101631.88
2023-02-16T16:51:36.487Z,101626.31
2023-02-16T16:54:05.578Z,101627.78
2023-02-16T16:56:36.830Z,101630.81
2023-02-16T16:59:04.220Z,101636.50
2023-02-16T17:01:31.105Z,101630.38
2023-02-16T17:03:58.177Z,101629.84
2023-02-16T17:06:25.320Z,101629.22
2023-02-16T17:08:51.969Z,101632.50
2023-02-16T17:11:34.241Z,101633.44
2023-02-16T17:14:08.492Z,101633.44
2023-02-16T17:16:38.520Z,101626.16
2023-02-16T17:19:05.064Z,101621.16
2023-02-16T17:21:31.527Z,101629.72
2023-02-16T17:23:57.972Z,101622.69
2023-02-16T17:26:24.529Z,101617.13
2023-02-16T17:28:51.145Z,101610.41
2023-02-16T17:31:17.718Z,101597.44
2023-02-16T17:33:44.875Z,101612.31
2023-02-16T17:36:13.871Z,101612.97
2023-02-16T17:38:40.404Z,101619.38
2023-02-16T17:41:06.926Z,101628.84
2023-02-16T17:43:33.377Z,101617.72
2023-02-16T17:46:04.700Z,101624.84
2023-02-16T17:48:31.443Z,101624.66
2023-02-16T17:50:58.280Z,101618.22
2023-02-16T17:53:25.903Z,101614.34
2023-02-16T17:55:54.572Z,101617.28
2023-02-16T17:58:22.332Z,101602.09
2023-02-16T18:00:48.972Z,101614.75
2023-02-16T18:03:15.601Z,101613.13
2023-02-16T18:05:42.099Z,101611.47
2023-02-16T18:08:08.662Z,101606.41
2023-02-16T18:10:46.549Z,101615.50
2023-02-16T18:13:13.815Z,101605.66
2023-02-16T18:15:42.767Z,101608.84
2023-02-16T18:18:09.362Z,101615.00
2023-02-16T18:20:36.023Z,101609.53
2023-02-16T18:23:02.691Z,101602.75
2023-02-16T18:25:30.880Z,101596.25
2023-02-16T18:27:57.651Z,101608.66
2023-02-16T18:30:24.482Z,101602.34
2023-02-16T18:32:51.932Z,101609.78
2023-02-16T18:35:19.878Z,101605.53
2023-02-16T18:37:47.521Z,101603.69
2023-02-16T18:40:17.761Z,101603.50
2023-02-16T18:42:45.530Z,101592.59
2023-02-16T18:45:12.880Z,101593.00
2023-02-16T18:47:42.884Z,101593.72
2023-02-16T18:50:09.965Z,101588.25
2023-02-16T18:52:37.121Z,101590.38
2023-02-16T18:55:03.963Z,101586.97
2023-02-16T18:57:33.715Z,101580.03
2023-02-16T19:00:01.126Z,101582.56
2023-02-16T19:02:28.144Z,101577.38
2023-02-16T19:04:58.787Z,101584.69
2023-02-16T19:07:33.226Z,101580.91
2023-02-16T19:10:03.672Z,101571.22
2023-02-16T19:12:33.876Z,101568.69
2023-02-16T19:15:00.647Z,101580.19
2023-02-16T19:17:30.528Z,101581.75
2023-02-16T19:19:57.521Z,101574.88
2023-02-16T19:22:24.822Z,101575.00
2023-02-16T19:24:54.116Z,101574.25
2023-02-16T19:27:21.061Z,101569.06
2023-02-16T19:29:51.062Z,101570.47
2023-02-16T19:32:21.073Z,101562.41
2023-02-16T19:34:54.145Z,101558.34
2023-02-16T19:37:24.372Z,101559.13
2023-02-16T19:39:54.270Z,101552.28
2023-02-16T19:42:21.991Z,101546.88
2023-02-16T19:45:00.242Z,101549.16
2023-02-16T19:47:27.520Z,101555.75
2023-02-16T19:49:54.909Z,101554.44
2023-02-16T19:52:27.776Z,101545.88
2023-02-16T19:54:55.402Z,101542.22
2023-02-16T19:57:21.913Z,101548.75
2023-02-16T19:59:48.347Z,101533.78
2023-02-16T20:02:15.594Z,101545.56
2023-02-16T20:04:42.953Z,101538.88
2023-02-16T20:07:09.835Z,101536.78
2023-02-16T20:09:37.361Z,101540.25
2023-02-16T20:12:04.733Z,101519.38
2023-02-16T20:14:31.306Z,101523.16
2023-02-16T20:16:57.742Z,101519.03
2023-02-16T20:19:24.241Z,101505.75
2023-02-16T20:21:51.348Z,101507.25
2023-02-16T20:24:18.819Z,101513.09
2023-02-16T20:26:47.134Z,101507.09
2023-02-16T20:29:17.917Z,101497.75
2023-02-16T20:31:53.441Z,101490.81
2023-02-16T20:34:21.503Z,101478.44
2023-02-16T20:36:48.088Z,101472.53
2023-02-16T20:39:15.139Z,101468.16
2023-02-16T20:41:41.701Z,101461.22
2023-02-16T20:44:08.251Z,101464.44
2023-02-16T20:46:34.723Z,101455.00
2023-02-16T20:49:01.268Z,101454.13
2023-02-16T20:51:27.948Z,101450.28
2023-02-16T20:53:54.430Z,101443.66
2023-02-16T20:56:23.483Z,101447.06
2023-02-16T20:58:51.332Z,101442.75
2023-02-16T21:01:20.774Z,101443.88
2023-02-16T21:03:47.406Z,101447.13
2023-02-16T21:06:15.043Z,101445.63
2023-02-16T21:08:41.728Z,101434.66
2023-02-16T21:11:08.333Z,101430.69
2023-02-16T21:13:38.712Z,101427.38
2023-02-16T21:16:06.144Z,101416.28
2023-02-16T21:18:33.392Z,101417.44
2023-02-16T21:21:01.031Z,101407.59
2023-02-16T21:23:28.110Z,101412.34
2023-02-16T21:26:03.269Z,101395.22
2023-02-16T21:28:30.018Z,101395.88
2023-02-16T21:30:56.797Z,101387.63
2023-02-16T21:33:23.337Z,101381.84
2023-02-16T21:35:49.837Z,101386.31
2023-02-16T21:38:17.801Z,101376.50
2023-02-16T21:41:02.856Z,101386.69
2023-02-16T21:43:31.457Z,101379.47
2023-02-16T21:45:59.884Z,101387.91
2023-02-16T21:48:44.950Z,101377.00
2023-02-16T21:51:15.424Z,101380.56
2023-02-16T21:53:41.972Z,101367.16
2023-02-16T21:56:26.855Z,101372.59
2023-02-16T21:58:53.536Z,101365.38
2023-02-16T22:01:22.079Z,101359.56
2023-02-16T22:03:48.681Z,101357.09
2023-02-16T22:06:15.593Z,101359.69
2023-02-16T22:08:42.221Z,101353.38
2023-02-16T22:11:11.474Z,101357.41
2023-02-16T22:13:38.652Z,101354.66
2023-02-16T22:16:10.250Z,101351.59
2023-02-16T22:18:37.184Z,101345.72
2023-02-16T22:21:04.987Z,101335.78
2023-02-16T22:23:31.604Z,101335.84
2023-02-16T22:25:59.506Z,101324.03
2023-02-16T22:28:27.720Z,101321.91
2023-02-16T22:30:58.114Z,101317.50
2023-02-16T22:33:24.952Z,101317.78
2023-02-16T22:35:51.461Z,101323.41
2023-02-16T22:38:20.358Z,101320.59
2023-02-16T22:40:48.716Z,101306.13
2023-02-16T22:43:16.803Z,101301.22
2023-02-16T22:45:43.576Z,101294.94
2023-02-16T22:48:10.069Z,101301.91
2023-02-16T22:50:36.534Z,101299.09
2023-02-16T22:53:05.076Z,101304.25
2023-02-16T22:55:31.545Z,101294.59
2023-02-16T22:57:57.984Z,101296.59
2023-02-16T23:00:24.543Z,101292.59
2023-02-16T23:02:51.012Z,101282.88
2023-02-16T23:05:17.632Z,101280.75
2023-02-16T23:07:44.102Z,101274.16
2023-02-16T23:10:10.778Z,101279.41
2023-02-16T23:12:37.309Z,101272.84
2023-02-16T23:15:04.032Z,101266.28
2023-02-16T23:17:30.510Z,101262.19
2023-02-16T23:19:57.030Z,101269.03
2023-02-16T23:22:23.503Z,101261.75
2023-02-16T23:25:09.979Z,101254.66
2023-02-16T23:27:36.512Z,101252.38
2023-02-16T23:30:03.629Z,101239.22
2023-02-16T23:32:30.130Z,101238.03
2023-02-16T23:34:56.656Z,101237.38
2023-02-16T23:37:23.117Z,101234.88
2023-02-16T23:39:49.617Z,101241.25
2023-02-16T23:42:16.106Z,101235.41
2023-02-16T23:44:42.603Z,101235.53
2023-02-16T23:47:09.100Z,101240.13
2023-02-16T23:49:35.644Z,101233.31
2023-02-16T23:52:02.120Z,101230.53
2023-02-16T23:54:28.645Z,101230.28
2023-02-16T23:56:55.115Z,101224.34
2023-02-16T23:59:21.658Z,101218.94
